Time;durP1;ratioP1;P1;durP2;ratioP2;P2;SDS_P1;SDS_P2;PMS_P1;PMS_P2;Temp;Humidity;BMP_temperature;BMP_pressure;BME280_temperature;BME280_humidity;BME280_pressure;Samples;Min_cycle;Max_cycle;Signal;HPM_P1;HPM_P2
2022/06/25 00:01:07;;;;;;;1.30;1.20;;;17.70;99.90;;;;;;5054508;28;20556;-71
2022/06/25 00:03:32;;;;;;;1.50;1.20;;;17.60;99.90;;;;;;5051835;28;20409;-71
2022/06/25 00:05:58;;;;;;;1.73;1.63;;;17.60;99.90;;;;;;5054016;28;20450;-71
2022/06/25 00:08:24;;;;;;;2.97;1.70;;;17.60;99.90;;;;;;5059401;28;20186;-71
2022/06/25 00:10:49;;;;;;;1.40;1.30;;;17.60;99.90;;;;;;5073882;28;20178;-71
2022/06/25 00:13:15;;;;;;;1.60;1.43;;;17.60;99.90;;;;;;5074139;28;20280;-71
2022/06/25 00:15:40;;;;;;;1.50;1.40;;;17.60;99.90;;;;;;5073806;28;20193;-70
2022/06/25 00:18:06;;;;;;;1.30;1.10;;;17.50;99.90;;;;;;5073767;28;20193;-71
2022/06/25 00:20:32;;;;;;;1.33;1.10;;;17.50;99.90;;;;;;5073796;28;20716;-71
2022/06/25 00:22:57;;;;;;;2.60;1.67;;;17.50;99.90;;;;;;5073931;28;20170;-71
2022/06/25 00:25:23;;;;;;;1.70;1.60;;;17.50;99.90;;;;;;5073592;28;20195;-71
2022/06/25 00:27:48;;;;;;;1.60;1.33;;;17.50;99.90;;;;;;5073300;28;20198;-70
2022/06/25 00:30:14;;;;;;;1.70;1.60;;;17.40;99.90;;;;;;5054846;28;20178;-71
2022/06/25 00:32:40;;;;;;;1.63;1.53;;;17.40;99.90;;;;;;5053824;28;20199;-71
2022/06/25 00:35:06;;;;;;;1.63;1.50;;;17.40;99.90;;;;;;5053413;28;20174;-71
2022/06/25 00:37:32;;;;;;;1.33;1.20;;;17.40;99.90;;;;;;5053656;28;20205;-70
2022/06/25 00:39:57;;;;;;;1.57;1.47;;;17.30;99.90;;;;;;5071231;28;20427;-70
2022/06/25 00:42:23;;;;;;;1.53;1.43;;;17.30;99.90;;;;;;5073675;28;20245;-71
2022/06/25 00:44:48;;;;;;;2.10;1.90;;;17.30;99.90;;;;;;5073240;28;20170;-70
2022/06/25 00:47:14;;;;;;;2.97;1.80;;;17.30;99.90;;;;;;5073669;28;20201;-70
2022/06/25 00:49:41;;;;;;;3.83;1.50;;;17.30;99.90;;;;;;5058391;28;20175;-71
2022/06/25 00:52:11;;;;;;;1.40;1.30;;;17.20;99.90;;;;;;5053423;28;20924;-71
2022/06/25 00:54:39;;;;;;;1.27;1.10;;;17.20;99.90;;;;;;5053064;28;20420;-70
2022/06/25 00:57:07;;;;;;;1.20;1.10;;;17.20;99.90;;;;;;5053309;28;20425;-71
2022/06/25 00:59:55;;;;;;;1.57;1.47;;;17.20;99.90;;;;;;5065810;28;20420;-71
2022/06/25 01:02:20;;;;;;;1.40;1.20;;;17.20;99.90;;;;;;5071956;28;20408;-70
2022/06/25 01:04:47;;;;;;;1.50;1.40;;;17.10;99.90;;;;;;5073106;28;20751;-70
2022/06/25 01:07:12;;;;;;;2.43;1.47;;;17.10;99.90;;;;;;5073154;28;20198;-70
2022/06/25 01:09:39;;;;;;;3.30;1.57;;;17.10;99.90;;;;;;5058453;28;20843;-70
2022/06/25 01:12:05;;;;;;;1.60;1.50;;;17.10;99.90;;;;;;5056723;28;20205;-70
2022/06/25 01:14:30;;;;;;;2.10;1.50;;;17.10;99.90;;;;;;5071404;28;20392;-70
2022/06/25 01:16:56;;;;;;;1.53;1.20;;;17.10;99.90;;;;;;5072868;28;20483;-70
2022/06/25 01:19:21;;;;;;;1.70;1.60;;;17.10;99.90;;;;;;5060840;28;20254;-70
2022/06/25 01:21:47;;;;;;;1.43;1.03;;;17.00;99.90;;;;;;5052808;28;20177;-71
2022/06/25 01:24:13;;;;;;;1.17;1.07;;;17.00;99.90;;;;;;5051428;28;20173;-70
2022/06/25 01:26:40;;;;;;;1.53;1.23;;;17.00;99.90;;;;;;5052686;28;20166;-70
2022/06/25 01:29:06;;;;;;;1.53;1.43;;;17.00;99.90;;;;;;5061861;28;20229;-71
2022/06/25 01:31:32;;;;;;;1.73;1.40;;;17.00;99.90;;;;;;5072678;28;20396;-71
2022/06/25 01:33:58;;;;;;;1.77;1.67;;;17.00;99.90;;;;;;5072467;28;20555;-71
2022/06/25 01:36:24;;;;;;;1.67;1.47;;;17.00;99.90;;;;;;5072357;28;20533;-71
2022/06/25 01:38:50;;;;;;;1.67;1.20;;;17.00;99.90;;;;;;5065317;28;20528;-70
2022/06/25 01:41:15;;;;;;;1.00;0.83;;;17.00;99.90;;;;;;5052058;28;20166;-70
2022/06/25 01:43:41;;;;;;;1.80;1.70;;;16.90;99.90;;;;;;5052489;28;20643;-70
2022/06/25 01:46:08;;;;;;;1.17;1.07;;;16.90;99.90;;;;;;5052101;28;20174;-71
2022/06/25 01:48:34;;;;;;;1.30;1.20;;;16.90;99.90;;;;;;5055879;28;20182;-71
2022/06/25 01:50:59;;;;;;;1.10;1.00;;;16.90;99.90;;;;;;5071594;28;20419;-70
2022/06/25 01:53:25;;;;;;;1.43;1.30;;;16.90;99.90;;;;;;5071959;28;20241;-71
2022/06/25 01:55:51;;;;;;;1.30;1.00;;;16.90;99.90;;;;;;5071959;28;20204;-70
2022/06/25 01:58:16;;;;;;;2.63;1.87;;;16.80;99.90;;;;;;5070283;28;20850;-71
2022/06/25 02:00:42;;;;;;;1.37;1.27;;;16.80;99.90;;;;;;5052204;28;20576;-71
2022/06/25 02:03:08;;;;;;;1.80;1.03;;;16.80;99.90;;;;;;5052072;28;21123;-71
2022/06/25 02:08:18;;;;;;;1.30;1.17;;;16.80;99.90;;;;;;5053662;28;20608;-71
2022/06/25 02:10:45;;;;;;;1.50;1.40;;;16.80;99.90;;;;;;5071763;28;20412;-71
2022/06/25 02:13:11;;;;;;;1.50;1.40;;;16.80;99.90;;;;;;5071903;28;20451;-71
2022/06/25 02:15:37;;;;;;;2.03;1.57;;;16.70;99.90;;;;;;5071887;28;20400;-70
2022/06/25 02:18:02;;;;;;;1.43;0.90;;;16.70;99.90;;;;;;5070587;28;20239;-70
2022/06/25 02:20:28;;;;;;;1.63;1.53;;;16.70;99.90;;;;;;5052184;28;20254;-70
2022/06/25 02:22:54;;;;;;;1.20;1.00;;;16.70;99.90;;;;;;5051932;28;20167;-70
2022/06/25 02:25:19;;;;;;;1.40;1.23;;;16.70;99.90;;;;;;5051621;28;20175;-71
2022/06/25 02:27:45;;;;;;;1.70;1.60;;;16.70;99.90;;;;;;5051754;28;20269;-71
2022/06/25 02:30:11;;;;;;;1.80;1.40;;;16.70;99.90;;;;;;5068369;28;20714;-71
2022/06/25 02:32:36;;;;;;;1.50;1.30;;;16.70;99.90;;;;;;5071732;28;20656;-71
2022/06/25 02:35:02;;;;;;;2.07;1.87;;;16.70;99.90;;;;;;5071458;28;20474;-71
2022/06/25 02:37:28;;;;;;;1.37;1.27;;;16.70;99.90;;;;;;5071729;28;20791;-71
2022/06/25 02:39:53;;;;;;;1.33;1.20;;;16.70;99.90;;;;;;5057897;28;20496;-70
2022/06/25 02:42:19;;;;;;;1.63;1.53;;;16.70;99.90;;;;;;5051612;28;20514;-71
2022/06/25 02:44:45;;;;;;;2.20;1.40;;;16.70;99.90;;;;;;5051395;28;20627;-71
2022/06/25 02:47:10;;;;;;;2.37;1.70;;;16.70;99.90;;;;;;5051585;28;20707;-70
2022/06/25 02:49:36;;;;;;;1.90;1.53;;;16.60;99.90;;;;;;5062426;28;20254;-71
2022/06/25 02:52:01;;;;;;;1.53;1.33;;;16.60;99.90;;;;;;5071579;28;20217;-71
2022/06/25 02:54:27;;;;;;;1.17;1.00;;;16.60;99.90;;;;;;5074454;28;20190;-70
2022/06/25 02:59:41;;;;;;;1.40;1.30;;;16.60;99.90;;;;;;5064265;28;20875;-71
2022/06/25 03:02:06;;;;;;;1.30;1.20;;;16.60;99.90;;;;;;5055499;28;20433;-71
2022/06/25 03:04:32;;;;;;;1.80;1.30;;;16.60;99.90;;;;;;5055268;28;20171;-70
2022/06/25 03:06:58;;;;;;;1.50;1.40;;;16.60;99.90;;;;;;5055432;28;20225;-71
2022/06/25 03:09:24;;;;;;;1.47;1.20;;;16.60;99.90;;;;;;5061730;28;20174;-71
2022/06/25 03:11:50;;;;;;;1.50;1.40;;;16.60;99.90;;;;;;5075310;28;20475;-71
2022/06/25 03:14:16;;;;;;;1.73;1.40;;;16.60;99.90;;;;;;5075182;28;20170;-70
2022/06/25 03:16:42;;;;;;;1.60;1.30;;;16.60;99.90;;;;;;5075255;28;20415;-70
2022/06/25 03:19:08;;;;;;;1.43;1.30;;;16.60;99.90;;;;;;5069819;28;20422;-71
2022/06/25 03:21:34;;;;;;;1.73;1.43;;;16.60;99.90;;;;;;5054365;28;20932;-71
2022/06/25 03:24:01;;;;;;;6.43;1.70;;;16.50;99.90;;;;;;5055075;28;20404;-70
2022/06/25 03:26:27;;;;;;;1.33;1.23;;;16.50;99.90;;;;;;5054917;28;20222;-71
2022/06/25 03:28:53;;;;;;;1.60;1.40;;;16.50;99.90;;;;;;5060310;28;20958;-71
2022/06/25 03:31:19;;;;;;;1.53;1.40;;;16.50;99.90;;;;;;5074984;28;20661;-70
2022/06/25 03:33:44;;;;;;;1.40;1.30;;;16.50;99.90;;;;;;5074966;28;20444;-71
2022/06/25 03:36:10;;;;;;;2.20;1.97;;;16.50;99.90;;;;;;5074702;28;20408;-70
2022/06/25 03:38:36;;;;;;;1.47;1.33;;;16.50;99.90;;;;;;5071667;28;20275;-70
2022/06/25 03:43:47;;;;;;;1.50;1.20;;;16.50;99.90;;;;;;5054907;28;20182;-70
2022/06/25 03:46:12;;;;;;;1.53;1.37;;;16.50;99.90;;;;;;5054476;28;20412;-71
2022/06/25 03:48:38;;;;;;;1.37;1.07;;;16.50;99.90;;;;;;5059776;28;20444;-71
2022/06/25 03:51:04;;;;;;;1.40;1.30;;;16.50;99.90;;;;;;5074710;28;20802;-68
2022/06/25 03:53:29;;;;;;;1.43;1.33;;;16.50;99.90;;;;;;5074440;28;20336;-69
2022/06/25 03:55:55;;;;;;;1.40;1.10;;;16.50;99.90;;;;;;5074316;28;20163;-70
2022/06/25 03:58:21;;;;;;;1.30;1.20;;;16.50;99.90;;;;;;5071363;28;20209;-70
2022/06/25 04:00:46;;;;;;;1.90;1.67;;;16.50;99.90;;;;;;5054542;28;20703;-70
2022/06/25 04:03:12;;;;;;;1.50;1.40;;;16.50;99.90;;;;;;5054455;28;20510;-69
2022/06/25 04:05:37;;;;;;;2.50;1.53;;;16.60;99.90;;;;;;5053816;28;20170;-72
2022/06/25 04:08:03;;;;;;;1.83;1.43;;;16.60;99.90;;;;;;5054790;28;20269;-71
2022/06/25 04:10:29;;;;;;;2.53;2.07;;;16.60;99.90;;;;;;5074537;28;20167;-68
2022/06/25 04:12:54;;;;;;;1.50;1.40;;;16.60;99.90;;;;;;5074267;28;20194;-68
2022/06/25 04:15:20;;;;;;;1.60;1.43;;;16.70;99.90;;;;;;5074758;28;20197;-73
2022/06/25 04:17:45;;;;;;;1.70;1.60;;;16.70;99.90;;;;;;5075080;28;20233;-72
2022/06/25 04:20:11;;;;;;;1.90;1.80;;;16.70;99.90;;;;;;5056847;28;20258;-73
2022/06/25 04:22:37;;;;;;;1.50;1.40;;;16.70;99.90;;;;;;5054489;28;20658;-72
2022/06/25 04:25:03;;;;;;;4.00;1.60;;;16.80;99.90;;;;;;5054349;28;20587;-72
2022/06/25 04:30:13;;;;;;;1.30;1.20;;;16.90;99.90;;;;;;5071178;28;20514;-69
2022/06/25 04:32:38;;;;;;;1.53;1.40;;;17.00;99.90;;;;;;5073818;28;20531;-70
2022/06/25 04:35:04;;;;;;;1.50;1.40;;;17.00;99.90;;;;;;5073791;28;20170;-72
2022/06/25 04:37:30;;;;;;;1.70;1.60;;;17.00;99.90;;;;;;5074559;28;20178;-72
2022/06/25 04:39:55;;;;;;;1.30;1.20;;;17.10;99.90;;;;;;5058761;28;20424;-69
2022/06/25 04:42:21;;;;;;;1.90;1.73;;;17.10;99.90;;;;;;5054040;28;20159;-73
2022/06/25 04:44:46;;;;;;;1.73;1.63;;;17.20;99.90;;;;;;5053984;28;20225;-69
2022/06/25 04:47:12;;;;;;;1.90;1.70;;;17.20;99.90;;;;;;5053616;28;20179;-70
2022/06/25 04:49:37;;;;;;;1.83;1.70;;;17.30;99.90;;;;;;5065330;28;20178;-71
2022/06/25 04:52:03;;;;;;;2.23;2.03;;;17.40;99.90;;;;;;5053511;28;20195;-71
2022/06/25 04:54:29;;;;;;;5.10;2.00;;;17.40;99.90;;;;;;5053140;28;20252;-70
2022/06/25 04:56:55;;;;;;;1.60;1.50;;;17.50;99.90;;;;;;5053433;28;20168;-70
2022/06/25 04:59:20;;;;;;;2.00;1.90;;;17.60;99.90;;;;;;5063305;28;20166;-72
2022/06/25 05:01:46;;;;;;;3.10;2.30;;;17.60;99.90;;;;;;5073909;28;20235;-73
2022/06/25 05:04:12;;;;;;;1.60;1.20;;;17.70;99.90;;;;;;5073200;28;20170;-70
2022/06/25 05:06:38;;;;;;;1.80;1.70;;;17.80;99.90;;;;;;5073230;28;20166;-71
2022/06/25 05:09:04;;;;;;;9.20;2.60;;;17.90;99.90;;;;;;5065617;28;20202;-68
2022/06/25 05:11:29;;;;;;;2.13;1.90;;;17.90;99.90;;;;;;5053183;28;20406;-70
2022/06/25 05:13:55;;;;;;;2.77;2.57;;;18.00;99.90;;;;;;5053083;28;20237;-72
2022/06/25 05:16:20;;;;;;;2.90;2.40;;;18.10;99.90;;;;;;5052921;28;20176;-73
2022/06/25 05:18:47;;;;;;;2.87;1.90;;;18.10;99.90;;;;;;5058239;28;20217;-73
2022/06/25 05:21:13;;;;;;;1.53;1.43;;;18.20;99.90;;;;;;5073874;28;20166;-72
2022/06/25 05:23:39;;;;;;;1.80;1.70;;;18.30;99.90;;;;;;5073386;28;20904;-71
2022/06/25 05:26:05;;;;;;;2.10;1.90;;;18.40;99.90;;;;;;5073100;28;20404;-69
2022/06/25 05:28:30;;;;;;;2.90;2.60;;;18.50;99.90;;;;;;5067860;28;20202;-70
2022/06/25 05:30:56;;;;;;;1.70;1.60;;;18.60;99.90;;;;;;5052890;28;20170;-70
2022/06/25 05:33:22;;;;;;;2.33;2.10;;;18.70;99.90;;;;;;5052653;28;20201;-69
2022/06/25 05:35:47;;;;;;;2.07;1.80;;;18.70;99.90;;;;;;5052477;28;20167;-69
2022/06/25 05:38:13;;;;;;;2.00;1.90;;;18.80;99.90;;;;;;5054478;28;20213;-71
2022/06/25 05:40:39;;;;;;;2.33;2.13;;;18.90;99.90;;;;;;5072612;28;20187;-71
2022/06/25 05:43:05;;;;;;;4.17;2.07;;;19.00;99.90;;;;;;5072575;28;20515;-69
2022/06/25 05:45:31;;;;;;;2.73;2.50;;;19.10;99.90;;;;;;5072747;28;20458;-72
2022/06/25 05:47:57;;;;;;;2.47;1.83;;;19.20;99.90;;;;;;5070152;28;20190;-70
2022/06/25 05:50:23;;;;;;;3.27;2.60;;;19.40;99.90;;;;;;5052735;28;20405;-70
2022/06/25 05:52:48;;;;;;;3.07;2.87;;;19.50;99.90;;;;;;5052135;28;20451;-70
2022/06/25 05:55:14;;;;;;;3.03;2.80;;;19.80;99.90;;;;;;5052144;28;20592;-70
2022/06/25 05:57:39;;;;;;;5.63;3.03;;;20.20;99.90;;;;;;5052263;28;20274;-69
2022/06/25 06:00:06;;;;;;;2.60;2.40;;;20.70;99.90;;;;;;5072401;28;20660;-73
2022/06/25 06:02:31;;;;;;;2.23;2.03;;;21.30;99.90;;;;;;5073364;28;20521;-73
2022/06/25 06:04:57;;;;;;;2.20;2.00;;;21.90;99.90;;;;;;5073192;28;20453;-70
2022/06/25 06:07:22;;;;;;;2.60;2.40;;;22.50;99.90;;;;;;5061199;28;20206;-71
2022/06/25 06:09:48;;;;;;;2.10;1.93;;;23.10;99.90;;;;;;5052174;28;20281;-69
2022/06/25 06:12:14;;;;;;;2.53;2.20;;;23.70;99.90;;;;;;5052046;28;20540;-69
2022/06/25 06:14:39;;;;;;;1.70;1.60;;;24.10;99.90;;;;;;5051857;28;20216;-69
2022/06/25 06:17:05;;;;;;;1.80;1.70;;;24.60;99.90;;;;;;5059712;28;20562;-70
2022/06/25 06:19:30;;;;;;;2.43;2.20;;;25.20;99.90;;;;;;5072028;28;20651;-71
2022/06/25 06:21:56;;;;;;;1.60;1.50;;;25.90;99.90;;;;;;5071997;28;20162;-71
2022/06/25 06:24:22;;;;;;;1.90;1.50;;;26.60;99.90;;;;;;5071698;28;20578;-71
2022/06/25 06:26:47;;;;;;;1.60;1.40;;;27.30;99.90;;;;;;5071767;28;20687;-71
2022/06/25 06:29:13;;;;;;;3.63;1.57;;;28.10;99.90;;;;;;5060565;28;20198;-71
2022/06/25 06:31:38;;;;;;;1.50;1.40;;;28.70;99.90;;;;;;5051859;28;20167;-71
2022/06/25 06:34:04;;;;;;;1.70;1.60;;;29.40;99.90;;;;;;5052027;28;20194;-73
2022/06/25 06:36:29;;;;;;;1.47;1.33;;;30.10;99.90;;;;;;5051788;28;20533;-70
2022/06/25 06:38:55;;;;;;;2.20;2.00;;;30.80;99.90;;;;;;5051780;28;20708;-69
2022/06/25 06:41:21;;;;;;;1.60;1.50;;;31.50;99.90;;;;;;5060925;28;20201;-70
2022/06/25 06:43:46;;;;;;;3.60;1.57;;;32.00;99.90;;;;;;5071840;28;20166;-70
2022/06/25 06:46:15;;;;;;;1.50;1.20;;;32.60;99.90;;;;;;5071404;28;20166;-70
2022/06/25 06:48:41;;;;;;;2.97;1.30;;;33.20;99.90;;;;;;5071700;28;20625;-69
2022/06/25 06:51:06;;;;;;;2.67;1.40;;;33.70;99.90;;;;;;5071703;28;20436;-71
2022/06/25 06:53:33;;;;;;;1.63;1.53;;;34.20;95.00;;;;;;5065219;28;20201;-70
2022/06/25 06:56:00;;;;;;;2.17;1.50;;;34.70;90.90;;;;;;5051370;28;20167;-70
2022/06/25 06:58:26;;;;;;;1.57;1.47;;;35.20;84.80;;;;;;5051568;28;20409;-71
2022/06/25 07:00:52;;;;;;;1.63;1.50;;;35.60;77.50;;;;;;5051588;28;20397;-72
2022/06/25 07:03:17;;;;;;;1.77;1.67;;;36.20;75.00;;;;;;5051772;28;20428;-72
2022/06/25 07:05:43;;;;;;;1.30;1.20;;;36.80;69.40;;;;;;5069992;28;20552;-70
2022/06/25 07:08:08;;;;;;;1.97;1.50;;;37.30;65.20;;;;;;5071513;28;20667;-72
2022/06/25 07:10:34;;;;;;;1.27;1.17;;;37.70;61.40;;;;;;5071462;28;20169;-73
2022/06/25 07:12:59;;;;;;;1.80;1.43;;;38.30;59.90;;;;;;5071493;28;20196;-73
2022/06/25 07:15:25;;;;;;;1.90;1.80;;;38.70;56.70;;;;;;5054062;28;20175;-74
2022/06/25 07:17:50;;;;;;;1.53;1.43;;;39.20;55.20;;;;;;5053574;28;20222;-73
2022/06/25 07:20:16;;;;;;;1.30;1.20;;;39.70;53.30;;;;;;5054278;28;20174;-74
2022/06/25 07:22:42;;;;;;;1.37;1.27;;;40.30;52.00;;;;;;5053023;28;20517;-70
2022/06/25 07:25:08;;;;;;;1.47;1.30;;;40.90;51.40;;;;;;5066146;28;20633;-72
2022/06/25 07:27:33;;;;;;;1.30;1.20;;;41.40;47.90;;;;;;5071349;28;20182;-70
2022/06/25 07:29:59;;;;;;;2.63;1.53;;;41.90;45.60;;;;;;5071402;28;20752;-71
2022/06/25 07:32:25;;;;;;;2.43;2.20;;;42.30;44.20;;;;;;5070186;28;20615;-73
2022/06/25 07:34:50;;;;;;;1.90;1.50;;;42.90;43.40;;;;;;5058860;28;20170;-74
2022/06/25 07:37:16;;;;;;;1.93;1.40;;;43.60;44.30;;;;;;5053873;28;20183;-74
2022/06/25 07:39:42;;;;;;;2.20;1.50;;;44.40;43.00;;;;;;5052913;28;20269;-75
2022/06/25 07:42:07;;;;;;;1.80;1.30;;;45.10;41.80;;;;;;5067549;28;20170;-70
2022/06/25 07:44:33;;;;;;;1.53;1.43;;;45.70;40.90;;;;;;5074605;28;21122;-70
2022/06/25 07:46:59;;;;;;;1.87;1.57;;;46.40;39.50;;;;;;5075103;28;20621;-75
2022/06/25 07:49:24;;;;;;;1.60;1.50;;;47.00;38.40;;;;;;5077597;28;20181;-75
2022/06/25 07:51:56;;;;;;;1.57;1.37;;;47.50;37.20;;;;;;5066207;28;20175;-73
2022/06/25 07:54:25;;;;;;;1.40;1.30;;;47.50;34.60;;;;;;5054325;28;20182;-74
2022/06/25 07:56:51;;;;;;;1.37;1.27;;;47.60;33.60;;;;;;5054575;28;20481;-73
2022/06/25 07:59:17;;;;;;;1.50;1.40;;;48.10;34.10;;;;;;5054618;28;20409;-73
2022/06/25 08:01:43;;;;;;;1.67;1.57;;;48.70;34.30;;;;;;5061633;28;20401;-73
2022/06/25 08:04:08;;;;;;;2.07;1.87;;;49.40;34.30;;;;;;5074387;28;20583;-74
2022/06/25 08:06:35;;;;;;;1.40;1.30;;;49.90;32.10;;;;;;5074205;28;20171;-73
2022/06/25 08:09:01;;;;;;;2.00;1.60;;;50.30;31.10;;;;;;5074391;28;20178;-73
2022/06/25 08:11:27;;;;;;;5.70;1.50;;;50.50;30.50;;;;;;5069397;28;20380;-73
2022/06/25 08:13:52;;;;;;;1.53;1.43;;;50.80;30.90;;;;;;5052913;28;20616;-72
2022/06/25 08:16:18;;;;;;;1.50;1.40;;;51.40;30.70;;;;;;5054196;28;20167;-73
2022/06/25 08:18:44;;;;;;;1.80;1.70;;;52.10;30.50;;;;;;5056465;28;20178;-75
2022/06/25 08:21:09;;;;;;;1.47;1.37;;;52.60;29.90;;;;;;5060194;28;20187;-75
2022/06/25 08:23:35;;;;;;;1.50;1.40;;;52.80;29.70;;;;;;5074681;28;20166;-72
2022/06/25 08:26:00;;;;;;;1.73;1.57;;;52.80;29.00;;;;;;5073938;28;20182;-72
2022/06/25 08:28:26;;;;;;;1.77;1.67;;;52.60;28.60;;;;;;5074063;28;20331;-71
2022/06/25 08:30:52;;;;;;;1.97;1.30;;;51.90;27.80;;;;;;5072820;28;20173;-70
2022/06/25 08:33:17;;;;;;;2.60;1.40;;;51.20;28.00;;;;;;5054042;28;20248;-72
2022/06/25 08:35:43;;;;;;;1.53;1.43;;;50.90;28.10;;;;;;5061500;28;20166;-72
2022/06/25 08:38:08;;;;;;;1.40;1.30;;;50.70;28.20;;;;;;5073849;28;20261;-72
2022/06/25 08:40:34;;;;;;;1.60;1.40;;;50.70;28.50;;;;;;5073865;28;20155;-72
2022/06/25 08:43:00;;;;;;;1.60;1.33;;;50.60;28.60;;;;;;5073855;28;20171;-73
2022/06/25 08:45:26;;;;;;;1.70;1.60;;;50.30;28.70;;;;;;5068459;28;20175;-72
2022/06/25 08:47:52;;;;;;;1.40;1.30;;;50.00;28.60;;;;;;5053187;28;20436;-73
2022/06/25 08:50:21;;;;;;;1.40;1.30;;;49.60;28.30;;;;;;5052401;28;20194;-74
2022/06/25 08:52:48;;;;;;;1.30;1.20;;;49.40;28.60;;;;;;5053147;28;20494;-73
2022/06/25 08:55:19;;;;;;;1.47;1.33;;;49.50;28.70;;;;;;5056029;28;20403;-73
2022/06/25 08:57:45;;;;;;;2.20;1.50;;;49.50;28.70;;;;;;5073468;28;20950;-73
2022/06/25 09:00:11;;;;;;;1.60;1.50;;;49.70;29.10;;;;;;5073405;28;20400;-73
2022/06/25 09:02:39;;;;;;;1.50;1.40;;;50.20;29.10;;;;;;5073316;28;20640;-71
2022/06/25 09:05:06;;;;;;;1.20;1.10;;;50.20;28.70;;;;;;5071467;28;20453;-70
2022/06/25 09:07:31;;;;;;;1.70;1.60;;;50.00;28.70;;;;;;5053485;28;20421;-70
2022/06/25 09:09:57;;;;;;;1.60;1.50;;;50.10;29.10;;;;;;5053088;28;20417;-70
2022/06/25 09:12:22;;;;;;;2.33;1.50;;;50.40;29.10;;;;;;5053068;28;20256;-71
2022/06/25 09:14:48;;;;;;;1.47;1.37;;;51.30;28.70;;;;;;5052871;28;20221;-71
2022/06/25 09:17:14;;;;;;;2.20;2.00;;;52.60;28.70;;;;;;5054069;28;20216;-71
2022/06/25 09:19:47;;;;;;;1.80;1.70;;;53.80;28.00;;;;;;5053086;28;20238;-71
2022/06/25 09:22:18;;;;;;;3.13;1.60;;;54.90;27.50;;;;;;5052942;28;20384;-71
2022/06/25 09:24:54;;;;;;;1.80;1.70;;;56.00;27.50;;;;;;5051363;28;20420;-69
2022/06/25 09:27:38;;;;;;;2.70;1.60;;;56.30;27.10;;;;;;5061361;28;20474;-73
2022/06/25 09:30:09;;;;;;;1.80;1.70;;;56.50;27.50;;;;;;5073142;28;20929;-69
2022/06/25 09:32:42;;;;;;;1.80;1.70;;;56.60;27.10;;;;;;5072737;28;20775;-73
2022/06/25 09:35:09;;;;;;;2.57;1.80;;;57.20;26.80;;;;;;5063422;28;20424;-73
2022/06/25 09:37:35;;;;;;;1.80;1.70;;;57.70;25.70;;;;;;5052600;28;20449;-72
2022/06/25 09:40:02;;;;;;;2.10;2.00;;;56.30;24.30;;;;;;5052732;28;20424;-72
2022/06/25 09:42:29;;;;;;;1.90;1.80;;;54.10;24.40;;;;;;5052687;28;20240;-74
2022/06/25 09:44:59;;;;;;;1.70;1.60;;;52.20;25.10;;;;;;5060088;28;20448;-75
2022/06/25 09:47:26;;;;;;;1.40;1.30;;;50.30;25.80;;;;;;5072764;28;20813;-73
2022/06/25 09:50:03;;;;;;;1.40;1.30;;;49.50;26.90;;;;;;5073074;28;20378;-74
2022/06/25 09:52:28;;;;;;;1.60;1.50;;;48.80;27.00;;;;;;5073254;28;20898;-74
2022/06/25 09:54:54;;;;;;;1.67;1.50;;;47.20;27.20;;;;;;5063831;28;20415;-74
2022/06/25 09:57:20;;;;;;;1.80;1.70;;;46.30;28.10;;;;;;5053649;28;20222;-73
2022/06/25 09:59:50;;;;;;;1.40;1.30;;;46.60;28.60;;;;;;5052984;28;20221;-73
2022/06/25 10:02:18;;;;;;;1.40;1.30;;;47.40;28.10;;;;;;5055352;28;20423;-73
2022/06/25 10:04:45;;;;;;;1.83;1.43;;;46.60;27.50;;;;;;5061795;28;20428;-72
2022/06/25 10:07:15;;;;;;;1.90;1.53;;;45.30;28.10;;;;;;5071504;28;20436;-74
2022/06/25 10:09:42;;;;;;;1.37;1.13;;;45.30;29.20;;;;;;5075440;28;20384;-75
2022/06/25 10:12:09;;;;;;;1.40;1.30;;;46.30;29.60;;;;;;5076640;28;20486;-75
2022/06/25 10:14:36;;;;;;;1.33;1.23;;;47.70;28.60;;;;;;5063479;28;20388;-74
2022/06/25 10:17:03;;;;;;;1.90;1.53;;;49.00;28.00;;;;;;5055659;28;20454;-75
2022/06/25 10:19:32;;;;;;;1.67;1.57;;;50.60;27.30;;;;;;5056614;28;20380;-73
2022/06/25 10:21:58;;;;;;;2.70;1.87;;;52.00;26.60;;;;;;5053119;28;20384;-75
2022/06/25 10:24:25;;;;;;;2.00;1.90;;;52.80;25.80;;;;;;5061997;28;20457;-75
2022/06/25 10:26:51;;;;;;;1.73;1.63;;;53.50;25.50;;;;;;5071818;28;20882;-74
2022/06/25 10:29:26;;;;;;;1.70;1.60;;;53.90;25.20;;;;;;5076028;28;20491;-74
2022/06/25 10:32:12;;;;;;;1.60;1.50;;;54.20;25.00;;;;;;5077155;28;20389;-73
2022/06/25 10:34:38;;;;;;;2.00;1.77;;;54.40;24.90;;;;;;5063847;28;20911;-74
2022/06/25 10:37:03;;;;;;;1.80;1.70;;;54.80;25.00;;;;;;5056571;28;20445;-74
2022/06/25 10:39:29;;;;;;;1.70;1.60;;;55.20;24.80;;;;;;5054258;28;20171;-75
2022/06/25 10:45:10;;;;;;;1.83;1.73;;;56.50;24.40;;;;;;5064540;28;20260;-75
2022/06/25 10:47:46;;;;;;;2.33;2.23;;;56.80;23.60;;;;;;5075267;28;20428;-74
2022/06/25 10:50:21;;;;;;;2.00;1.77;;;57.00;23.80;;;;;;5072390;28;20628;-75
2022/06/25 10:53:02;;;;;;;1.90;1.80;;;57.10;23.60;;;;;;5071974;28;20383;-73
2022/06/25 10:55:53;;;;;;;2.10;2.00;;;57.50;23.60;;;;;;5050580;28;20583;-74
2022/06/25 10:58:24;;;;;;;2.20;2.00;;;57.90;23.90;;;;;;5037332;28;20404;-74
2022/06/25 11:00:49;;;;;;;2.23;2.13;;;58.30;23.60;;;;;;5052995;28;20459;-74
2022/06/25 11:03:16;;;;;;;1.97;1.87;;;58.20;23.50;;;;;;5053355;28;20896;-72
2022/06/25 11:05:43;;;;;;;1.70;1.60;;;57.00;23.00;;;;;;5076265;28;20166;-73
2022/06/25 11:08:09;;;;;;;1.50;1.40;;;55.20;23.20;;;;;;5072014;28;20406;-71
2022/06/25 11:10:36;;;;;;;2.60;1.90;;;53.50;23.70;;;;;;5077518;28;20412;-73
2022/06/25 11:13:03;;;;;;;1.70;1.60;;;51.90;24.10;;;;;;5068648;28;20184;-72
2022/06/25 11:15:42;;;;;;;1.97;1.80;;;50.20;24.50;;;;;;5055583;28;20379;-74
2022/06/25 11:18:09;;;;;;;1.53;1.43;;;48.50;25.10;;;;;;5055263;28;20411;-73
2022/06/25 11:20:36;;;;;;;2.90;2.23;;;46.90;25.80;;;;;;5055677;28;20384;-72
2022/06/25 11:23:02;;;;;;;2.40;1.60;;;45.30;26.50;;;;;;5058054;28;20491;-71
2022/06/25 11:28:53;;;;;;;1.60;1.23;;;42.50;28.20;;;;;;4993779;28;20453;-73
2022/06/25 11:31:21;;;;;;;1.87;1.40;;;41.10;29.10;;;;;;4994527;28;20382;-73
2022/06/25 11:33:49;;;;;;;1.50;1.20;;;40.10;29.90;;;;;;5026807;28;20928;-73
2022/06/25 11:36:15;;;;;;;1.47;1.20;;;39.20;30.30;;;;;;5057303;28;20405;-72
2022/06/25 11:38:43;;;;;;;1.33;1.23;;;38.60;30.90;;;;;;5058022;28;20433;-73
2022/06/25 11:41:29;;;;;;;1.30;1.00;;;38.70;31.90;;;;;;5059455;28;20440;-73
2022/06/25 11:43:55;;;;;;;1.63;1.33;;;38.90;32.30;;;;;;5068211;28;21027;-74
2022/06/25 11:46:21;;;;;;;1.77;1.47;;;38.80;32.60;;;;;;5075462;28;20416;-73
2022/06/25 11:48:47;;;;;;;1.97;1.30;;;38.50;32.90;;;;;;5077394;28;20225;-73
2022/06/25 11:51:21;;;;;;;1.30;1.20;;;38.10;33.00;;;;;;5077248;28;20241;-73
2022/06/25 11:53:47;;;;;;;1.40;1.20;;;37.80;34.20;;;;;;5063966;28;20440;-73
2022/06/25 11:56:13;;;;;;;1.40;1.20;;;37.70;34.20;;;;;;5066211;28;20896;-71
2022/06/25 11:58:41;;;;;;;1.37;1.27;;;37.50;34.40;;;;;;5057637;28;20276;-72
2022/06/25 12:01:06;;;;;;;1.27;1.17;;;37.30;34.60;;;;;;5059772;28;20452;-71
2022/06/25 12:03:33;;;;;;;1.50;1.17;;;37.10;34.90;;;;;;5068352;28;20451;-72
2022/06/25 12:06:01;;;;;;;1.30;1.20;;;36.90;35.00;;;;;;5078146;28;20166;-71
2022/06/25 12:08:27;;;;;;;1.50;1.40;;;36.50;35.00;;;;;;5078615;28;20463;-73
2022/06/25 12:10:55;;;;;;;1.40;1.10;;;36.10;35.50;;;;;;5077742;28;20474;-71
2022/06/25 12:13:22;;;;;;;1.60;1.40;;;35.70;36.20;;;;;;5064400;28;20508;-71
2022/06/25 12:16:00;;;;;;;1.20;1.10;;;35.10;36.40;;;;;;5055874;28;20946;-72
2022/06/25 12:18:54;;;;;;;1.20;1.10;;;34.50;37.10;;;;;;5058159;28;20487;-71
2022/06/25 12:21:20;;;;;;;3.53;1.83;;;33.80;38.20;;;;;;5071725;28;20473;-72
2022/06/25 12:23:57;;;;;;;1.60;1.20;;;33.20;39.00;;;;;;5076336;28;20455;-72
2022/06/25 12:26:24;;;;;;;2.50;1.57;;;32.80;39.80;;;;;;5079281;28;20158;-73
2022/06/25 12:28:49;;;;;;;1.30;1.20;;;32.40;40.30;;;;;;5080036;28;20504;-72
2022/06/25 12:31:16;;;;;;;1.23;1.13;;;32.00;41.00;;;;;;5071447;28;20453;-72
2022/06/25 12:33:50;;;;;;;2.17;1.30;;;31.80;41.60;;;;;;5074249;28;20665;-70
2022/06/25 12:36:17;;;;;;;1.60;1.50;;;31.50;41.90;;;;;;5079670;28;20419;-72
2022/06/25 12:38:43;;;;;;;1.70;1.50;;;31.30;42.20;;;;;;5079467;28;20432;-72
2022/06/25 12:41:09;;;;;;;2.03;1.10;;;31.10;42.60;;;;;;5067806;28;20503;-72
2022/06/25 12:43:48;;;;;;;1.97;1.40;;;31.10;43.80;;;;;;5053669;28;20205;-71
2022/06/25 12:46:18;;;;;;;1.50;1.23;;;31.00;43.60;;;;;;5058188;28;20171;-72
2022/06/25 12:48:44;;;;;;;1.50;1.30;;;31.00;44.00;;;;;;5058537;28;20433;-73
2022/06/25 12:51:11;;;;;;;1.33;1.03;;;31.00;44.20;;;;;;5077695;28;20688;-72
2022/06/25 12:53:38;;;;;;;1.20;1.10;;;31.00;44.40;;;;;;5080064;28;20562;-72
2022/06/25 12:56:05;;;;;;;1.60;1.50;;;31.10;44.60;;;;;;5077342;28;20420;-70
2022/06/25 12:58:39;;;;;;;1.40;1.27;;;31.10;44.60;;;;;;5076489;28;20428;-72
2022/06/25 13:01:37;;;;;;;1.50;1.30;;;31.00;44.60;;;;;;5058120;28;20508;-70
2022/06/25 13:04:02;;;;;;;1.40;1.30;;;31.00;44.80;;;;;;5022841;28;20461;-71